sensor_id;sensor_type;location;lat;lon;timestamp;pressure;altitude;pressure_sealevel;temperature;humidity
8756;BME280;4414;42.670;23.228;2022-07-18T00:01:16;44808.88;;;-137.01;55.68
8756;BME280;4414;42.670;23.228;2022-07-18T00:03:43;44812.69;;;-137.01;55.89
8756;BME280;4414;42.670;23.228;2022-07-18T00:06:11;44837.56;;;-137.01;56.33
8756;BME280;4414;42.670;23.228;2022-07-18T00:08:38;44828.00;;;-137.01;56.18
8756;BME280;4414;42.670;23.228;2022-07-18T00:11:04;44810.78;;;-137.01;55.30
8756;BME280;4414;42.670;23.228;2022-07-18T00:13:31;44814.59;;;-137.01;55.75
8756;BME280;4414;42.670;23.228;2022-07-18T00:15:58;44826.09;;;-137.01;53.66
8756;BME280;4414;42.670;23.228;2022-07-18T00:18:25;44835.66;;;-137.01;54.76
8756;BME280;4414;42.670;23.228;2022-07-18T00:20:51;44801.22;;;-137.01;54.89
8756;BME280;4414;42.670;23.228;2022-07-18T00:23:19;44843.28;;;-137.01;53.59
8756;BME280;4414;42.670;23.228;2022-07-18T00:25:46;44850.94;;;-137.01;53.08
8756;BME280;4414;42.670;23.228;2022-07-18T00:28:13;44810.78;;;-137.01;53.44
8756;BME280;4414;42.670;23.228;2022-07-18T00:30:40;44826.09;;;-137.01;52.57
8756;BME280;4414;42.670;23.228;2022-07-18T00:33:07;44822.25;;;-137.01;52.68
8756;BME280;4414;42.670;23.228;2022-07-18T00:35:34;44818.44;;;-137.01;52.36
8756;BME280;4414;42.670;23.228;2022-07-18T00:38:01;44814.59;;;-137.01;54.12
8756;BME280;4414;42.670;23.228;2022-07-18T00:40:30;44822.25;;;-137.01;52.53
8756;BME280;4414;42.670;23.228;2022-07-18T00:42:57;44852.88;;;-137.01;52.14
8756;BME280;4414;42.670;23.228;2022-07-18T00:45:23;44810.78;;;-137.01;51.64
8756;BME280;4414;42.670;23.228;2022-07-18T00:47:50;44806.97;;;-137.01;51.50
8756;BME280;4414;42.670;23.228;2022-07-18T00:50:18;44826.09;;;-137.01;51.64
8756;BME280;4414;42.670;23.228;2022-07-18T00:52:45;44833.72;;;-137.01;51.27
8756;BME280;4414;42.670;23.228;2022-07-18T00:55:12;44820.34;;;-137.01;51.12
8756;BME280;4414;42.670;23.228;2022-07-18T00:57:41;44822.25;;;-137.01;51.24
8756;BME280;4414;42.670;23.228;2022-07-18T01:00:11;44833.72;;;-137.01;51.07
8756;BME280;4414;42.670;23.228;2022-07-18T01:03:07;44837.56;;;-137.01;51.47
8756;BME280;4414;42.670;23.228;2022-07-18T01:05:34;44808.88;;;-137.01;50.70
8756;BME280;4414;42.670;23.228;2022-07-18T01:08:01;44795.47;;;-137.01;51.21
8756;BME280;4414;42.670;23.228;2022-07-18T01:10:28;44829.91;;;-137.01;50.76
8756;BME280;4414;42.670;23.228;2022-07-18T01:12:56;44828.00;;;-137.01;52.09
8756;BME280;4414;42.670;23.228;2022-07-18T01:15:23;44829.91;;;-137.01;51.58
8756;BME280;4414;42.670;23.228;2022-07-18T01:17:49;44837.56;;;-137.01;51.78
8756;BME280;4414;42.670;23.228;2022-07-18T01:20:16;44833.72;;;-137.01;53.31
8756;BME280;4414;42.670;23.228;2022-07-18T01:22:44;44839.47;;;-137.01;53.06
8756;BME280;4414;42.670;23.228;2022-07-18T01:25:12;44833.72;;;-137.01;52.34
8756;BME280;4414;42.670;23.228;2022-07-18T01:27:40;44833.72;;;-137.01;51.91
8756;BME280;4414;42.670;23.228;2022-07-18T01:30:08;44829.91;;;-137.01;53.35
8756;BME280;4414;42.670;23.228;2022-07-18T01:32:35;44814.59;;;-137.01;55.14
8756;BME280;4414;42.670;23.228;2022-07-18T01:35:02;44822.25;;;-137.01;54.26
8756;BME280;4414;42.670;23.228;2022-07-18T01:37:29;44833.72;;;-137.01;54.61
8756;BME280;4414;42.670;23.228;2022-07-18T01:39:57;44847.13;;;-137.01;53.54
8756;BME280;4414;42.670;23.228;2022-07-18T01:42:24;44822.25;;;-137.01;53.77
8756;BME280;4414;42.670;23.228;2022-07-18T01:44:51;44806.97;;;-137.01;53.88
8756;BME280;4414;42.670;23.228;2022-07-18T01:47:18;44824.16;;;-137.01;53.42
8756;BME280;4414;42.670;23.228;2022-07-18T01:49:44;44799.31;;;-137.01;55.02
8756;BME280;4414;42.670;23.228;2022-07-18T01:52:11;44841.38;;;-137.01;56.13
8756;BME280;4414;42.670;23.228;2022-07-18T01:54:38;44850.94;;;-137.01;54.77
8756;BME280;4414;42.670;23.228;2022-07-18T01:57:07;44835.66;;;-137.01;54.61
8756;BME280;4414;42.670;23.228;2022-07-18T01:59:34;44816.53;;;-137.01;54.69
8756;BME280;4414;42.670;23.228;2022-07-18T02:02:02;44826.09;;;-137.01;54.02
8756;BME280;4414;42.670;23.228;2022-07-18T02:04:29;44841.38;;;-137.01;53.61
8756;BME280;4414;42.670;23.228;2022-07-18T02:07:10;44854.78;;;-137.01;54.15
8756;BME280;4414;42.670;23.228;2022-07-18T02:09:37;44818.44;;;-137.01;54.90
8756;BME280;4414;42.670;23.228;2022-07-18T02:12:04;44831.81;;;-137.01;56.27
8756;BME280;4414;42.670;23.228;2022-07-18T02:14:32;44818.44;;;-137.01;56.75
8756;BME280;4414;42.670;23.228;2022-07-18T02:16:59;44824.16;;;-137.01;56.26
8756;BME280;4414;42.670;23.228;2022-07-18T02:19:25;44841.38;;;-137.01;56.16
8756;BME280;4414;42.670;23.228;2022-07-18T02:21:52;44826.09;;;-137.01;56.00
8756;BME280;4414;42.670;23.228;2022-07-18T02:24:19;44799.31;;;-137.01;54.89
8756;BME280;4414;42.670;23.228;2022-07-18T02:26:46;44826.09;;;-137.01;55.38
8756;BME280;4414;42.670;23.228;2022-07-18T02:29:12;44822.25;;;-137.01;54.77
8756;BME280;4414;42.670;23.228;2022-07-18T02:31:41;44831.81;;;-137.01;53.76
8756;BME280;4414;42.670;23.228;2022-07-18T02:34:08;44820.34;;;-137.01;54.06
8756;BME280;4414;42.670;23.228;2022-07-18T02:36:36;44841.38;;;-137.01;53.86
8756;BME280;4414;42.670;23.228;2022-07-18T02:39:03;44814.59;;;-137.01;54.83
8756;BME280;4414;42.670;23.228;2022-07-18T02:41:30;44818.44;;;-137.01;54.99
8756;BME280;4414;42.670;23.228;2022-07-18T02:43:56;44824.16;;;-137.01;54.38
8756;BME280;4414;42.670;23.228;2022-07-18T02:46:24;44841.38;;;-137.01;53.04
8756;BME280;4414;42.670;23.228;2022-07-18T02:48:52;44816.53;;;-137.01;51.71
8756;BME280;4414;42.670;23.228;2022-07-18T02:51:19;44812.69;;;-137.01;51.04
8756;BME280;4414;42.670;23.228;2022-07-18T02:53:46;44808.88;;;-137.01;52.35
8756;BME280;4414;42.670;23.228;2022-07-18T02:56:13;44814.59;;;-137.01;51.47
8756;BME280;4414;42.670;23.228;2022-07-18T02:58:39;44808.88;;;-137.01;51.53
8756;BME280;4414;42.670;23.228;2022-07-18T03:01:06;44801.22;;;-137.01;52.42
8756;BME280;4414;42.670;23.228;2022-07-18T03:03:33;44808.88;;;-137.01;50.99
8756;BME280;4414;42.670;23.228;2022-07-18T03:06:01;44820.34;;;-137.01;50.52
8756;BME280;4414;42.670;23.228;2022-07-18T03:08:28;44826.09;;;-137.01;51.16
8756;BME280;4414;42.670;23.228;2022-07-18T03:10:55;44829.91;;;-137.01;51.89
8756;BME280;4414;42.670;23.228;2022-07-18T03:13:22;44835.66;;;-137.01;53.23
8756;BME280;4414;42.670;23.228;2022-07-18T03:15:49;44829.91;;;-137.01;54.08
8756;BME280;4414;42.670;23.228;2022-07-18T03:18:15;44829.91;;;-137.01;55.15
8756;BME280;4414;42.670;23.228;2022-07-18T03:20:42;44801.22;;;-137.01;52.86
8756;BME280;4414;42.670;23.228;2022-07-18T03:23:11;44824.16;;;-137.01;53.53
8756;BME280;4414;42.670;23.228;2022-07-18T03:25:38;44791.66;;;-137.01;53.00
8756;BME280;4414;42.670;23.228;2022-07-18T03:28:05;44812.69;;;-137.01;52.19
8756;BME280;4414;42.670;23.228;2022-07-18T03:30:31;44833.72;;;-137.01;51.89
8756;BME280;4414;42.670;23.228;2022-07-18T03:32:58;44831.81;;;-137.01;51.41
8756;BME280;4414;42.670;23.228;2022-07-18T03:35:25;44808.88;;;-137.01;51.63
8756;BME280;4414;42.670;23.228;2022-07-18T03:37:52;44833.72;;;-137.01;51.66
8756;BME280;4414;42.670;23.228;2022-07-18T03:40:20;44806.97;;;-137.01;51.24
8756;BME280;4414;42.670;23.228;2022-07-18T03:42:47;44856.69;;;-137.01;51.00
8756;BME280;4414;42.670;23.228;2022-07-18T03:45:13;44818.44;;;-137.01;49.55
8756;BME280;4414;42.670;23.228;2022-07-18T03:47:40;44826.09;;;-137.01;50.09
8756;BME280;4414;42.670;23.228;2022-07-18T03:50:08;44805.03;;;-137.01;48.61
8756;BME280;4414;42.670;23.228;2022-07-18T03:52:35;44856.69;;;-137.01;49.28
8756;BME280;4414;42.670;23.228;2022-07-18T03:55:02;44795.47;;;-137.01;48.52
8756;BME280;4414;42.670;23.228;2022-07-18T03:57:30;44826.09;;;-137.01;48.04
8756;BME280;4414;42.670;23.228;2022-07-18T03:59:57;44828.00;;;-137.01;48.46
8756;BME280;4414;42.670;23.228;2022-07-18T04:02:24;44839.47;;;-137.01;48.95
8756;BME280;4414;42.670;23.228;2022-07-18T04:04:50;44862.44;;;-137.01;46.81
8756;BME280;4414;42.670;23.228;2022-07-18T04:07:17;44847.13;;;-137.01;45.91
8756;BME280;4414;42.670;23.228;2022-07-18T04:09:44;44826.09;;;-137.01;43.71
8756;BME280;4414;42.670;23.228;2022-07-18T04:12:11;44829.91;;;-137.01;42.30
8756;BME280;4414;42.670;23.228;2022-07-18T04:14:39;44810.78;;;-137.01;42.73
8756;BME280;4414;42.670;23.228;2022-07-18T04:17:05;44837.56;;;-137.01;44.15
8756;BME280;4414;42.670;23.228;2022-07-18T04:19:32;44810.78;;;-137.01;43.53
8756;BME280;4414;42.670;23.228;2022-07-18T04:21:59;44862.44;;;-137.01;44.45
8756;BME280;4414;42.670;23.228;2022-07-18T04:24:26;44824.16;;;-137.01;46.64
8756;BME280;4414;42.670;23.228;2022-07-18T04:26:53;44833.72;;;-137.01;43.55
8756;BME280;4414;42.670;23.228;2022-07-18T04:29:19;44841.38;;;-137.01;45.49
8756;BME280;4414;42.670;23.228;2022-07-18T04:31:48;44818.44;;;-137.01;46.39
8756;BME280;4414;42.670;23.228;2022-07-18T04:34:14;44837.56;;;-137.01;43.11
8756;BME280;4414;42.670;23.228;2022-07-18T04:36:41;44831.81;;;-137.01;42.04
8756;BME280;4414;42.670;23.228;2022-07-18T04:39:08;44856.69;;;-137.01;41.04
8756;BME280;4414;42.670;23.228;2022-07-18T04:41:35;44828.00;;;-137.01;40.56
8756;BME280;4414;42.670;23.228;2022-07-18T04:44:02;44843.28;;;-137.01;38.07
8756;BME280;4414;42.670;23.228;2022-07-18T04:46:29;44845.22;;;-137.01;38.63
8756;BME280;4414;42.670;23.228;2022-07-18T04:48:57;44845.22;;;-137.01;39.25
8756;BME280;4414;42.670;23.228;2022-07-18T04:51:24;44843.28;;;-137.01;41.80
8756;BME280;4414;42.670;23.228;2022-07-18T04:53:51;44856.69;;;-137.01;44.18
8756;BME280;4414;42.670;23.228;2022-07-18T04:56:19;44829.91;;;-137.01;40.10
8756;BME280;4414;42.670;23.228;2022-07-18T04:58:46;44849.03;;;-137.01;40.80
8756;BME280;4414;42.670;23.228;2022-07-18T05:01:13;44824.16;;;-137.01;41.15
8756;BME280;4414;42.670;23.228;2022-07-18T05:03:40;44858.59;;;-137.01;40.34
8756;BME280;4414;42.670;23.228;2022-07-18T05:06:08;44849.03;;;-137.01;40.06
8756;BME280;4414;42.670;23.228;2022-07-18T05:08:35;44850.94;;;-137.01;39.78
8756;BME280;4414;42.670;23.228;2022-07-18T05:11:02;44850.94;;;-137.01;39.90
8756;BME280;4414;42.670;23.228;2022-07-18T05:13:29;44843.28;;;-137.01;40.06
8756;BME280;4414;42.670;23.228;2022-07-18T05:15:55;44843.28;;;-137.01;40.35
8756;BME280;4414;42.670;23.228;2022-07-18T05:18:22;44858.59;;;-137.01;41.06
8756;BME280;4414;42.670;23.228;2022-07-18T05:20:49;44847.13;;;-137.01;41.05
8756;BME280;4414;42.670;23.228;2022-07-18T05:23:17;44845.22;;;-137.01;40.79
8756;BME280;4414;42.670;23.228;2022-07-18T05:25:44;44835.66;;;-137.01;40.09
8756;BME280;4414;42.670;23.228;2022-07-18T05:28:11;44822.25;;;-137.01;39.78
8756;BME280;4414;42.670;23.228;2022-07-18T05:30:38;44841.38;;;-137.01;39.90
8756;BME280;4414;42.670;23.228;2022-07-18T05:33:04;44845.22;;;-137.01;41.15
8756;BME280;4414;42.670;23.228;2022-07-18T05:35:32;44843.28;;;-137.01;42.52
8756;BME280;4414;42.670;23.228;2022-07-18T05:37:58;44835.66;;;-137.01;40.43
8756;BME280;4414;42.670;23.228;2022-07-18T05:40:26;44831.81;;;-137.01;40.98
8756;BME280;4414;42.670;23.228;2022-07-18T05:42:53;44872.00;;;-137.01;42.58
8756;BME280;4414;42.670;23.228;2022-07-18T05:45:21;44837.56;;;-137.01;39.81
8756;BME280;4414;42.670;23.228;2022-07-18T05:47:48;44850.94;;;-137.01;40.32
8756;BME280;4414;42.670;23.228;2022-07-18T05:50:15;44824.16;;;-137.01;40.39
8756;BME280;4414;42.670;23.228;2022-07-18T05:52:42;44864.34;;;-137.01;39.64
8756;BME280;4414;42.670;23.228;2022-07-18T05:55:10;44831.81;;;-137.01;40.92
8756;BME280;4414;42.670;23.228;2022-07-18T05:57:38;44856.69;;;-137.01;42.06
8756;BME280;4414;42.670;23.228;2022-07-18T06:00:08;44837.56;;;-137.01;42.33
8756;BME280;4414;42.670;23.228;2022-07-18T06:02:36;44849.03;;;-137.01;40.88
8756;BME280;4414;42.670;23.228;2022-07-18T06:05:03;44849.03;;;-137.01;40.92
8756;BME280;4414;42.670;23.228;2022-07-18T06:07:30;44818.44;;;-137.01;42.21
8756;BME280;4414;42.670;23.228;2022-07-18T06:09:57;44816.53;;;-137.01;41.21
8756;BME280;4414;42.670;23.228;2022-07-18T06:12:24;44854.78;;;-137.01;38.97
8756;BME280;4414;42.670;23.228;2022-07-18T06:14:52;44837.56;;;-137.01;40.00
8756;BME280;4414;42.670;23.228;2022-07-18T06:17:19;44862.44;;;-137.01;39.52
8756;BME280;4414;42.670;23.228;2022-07-18T06:19:46;44862.44;;;-137.01;39.45
8756;BME280;4414;42.670;23.228;2022-07-18T06:22:13;44833.72;;;-137.01;38.45
8756;BME280;4414;42.670;23.228;2022-07-18T06:24:40;44845.22;;;-137.01;38.33
8756;BME280;4414;42.670;23.228;2022-07-18T06:27:06;44852.88;;;-137.01;39.74
8756;BME280;4414;42.670;23.228;2022-07-18T06:29:33;44864.34;;;-137.01;38.66
8756;BME280;4414;42.670;23.228;2022-07-18T06:32:01;44845.22;;;-137.01;38.42
8756;BME280;4414;42.670;23.228;2022-07-18T06:34:28;44839.47;;;-137.01;39.81
8756;BME280;4414;42.670;23.228;2022-07-18T06:36:55;44845.22;;;-137.01;40.54
8756;BME280;4414;42.670;23.228;2022-07-18T06:39:21;44864.34;;;-137.01;40.49
8756;BME280;4414;42.670;23.228;2022-07-18T06:41:48;44856.69;;;-137.01;39.81
8756;BME280;4414;42.670;23.228;2022-07-18T06:44:15;44852.88;;;-137.01;39.71
8756;BME280;4414;42.670;23.228;2022-07-18T06:46:42;44866.25;;;-137.01;41.19
8756;BME280;4414;42.670;23.228;2022-07-18T06:49:10;44858.59;;;-137.01;39.85
8756;BME280;4414;42.670;23.228;2022-07-18T06:51:37;44839.47;;;-137.01;38.47
8756;BME280;4414;42.670;23.228;2022-07-18T06:54:04;44833.72;;;-137.01;37.30
8756;BME280;4414;42.670;23.228;2022-07-18T06:56:30;44843.28;;;-137.01;37.45
8756;BME280;4414;42.670;23.228;2022-07-18T06:58:57;44858.59;;;-137.01;37.35
8756;BME280;4414;42.670;23.228;2022-07-18T07:01:24;44850.94;;;-137.01;40.43
8756;BME280;4414;42.670;23.228;2022-07-18T07:03:51;44841.38;;;-137.01;38.88
8756;BME280;4414;42.670;23.228;2022-07-18T07:06:19;44845.22;;;-137.01;37.53
8756;BME280;4414;42.670;23.228;2022-07-18T07:08:46;44858.59;;;-137.01;38.39
8756;BME280;4414;42.670;23.228;2022-07-18T07:11:13;44860.50;;;-137.01;35.84
8756;BME280;4414;42.670;23.228;2022-07-18T07:13:40;44833.72;;;-137.01;38.10
8756;BME280;4414;42.670;23.228;2022-07-18T07:16:07;44845.22;;;-137.01;36.56
8756;BME280;4414;42.670;23.228;2022-07-18T07:18:34;44849.03;;;-137.01;35.40
8756;BME280;4414;42.670;23.228;2022-07-18T07:21:00;44841.38;;;-137.01;37.39
8756;BME280;4414;42.670;23.228;2022-07-18T07:23:29;44870.06;;;-137.01;38.65
8756;BME280;4414;42.670;23.228;2022-07-18T07:25:55;44860.50;;;-137.01;39.45
8756;BME280;4414;42.670;23.228;2022-07-18T07:28:22;44839.47;;;-137.01;37.85
8756;BME280;4414;42.670;23.228;2022-07-18T07:30:49;44843.28;;;-137.01;35.38
8756;BME280;4414;42.670;23.228;2022-07-18T07:33:16;44883.47;;;-137.01;34.06
8756;BME280;4414;42.670;23.228;2022-07-18T07:35:42;44839.47;;;-137.01;32.60
8756;BME280;4414;42.670;23.228;2022-07-18T07:38:09;44854.78;;;-137.01;33.66
8756;BME280;4414;42.670;23.228;2022-07-18T07:40:44;44839.47;;;-137.01;32.11
8756;BME280;4414;42.670;23.228;2022-07-18T07:43:12;44850.94;;;-137.01;33.12
8756;BME280;4414;42.670;23.228;2022-07-18T07:45:40;44860.50;;;-137.01;33.52
8756;BME280;4414;42.670;23.228;2022-07-18T07:48:07;44870.06;;;-137.01;32.91
8756;BME280;4414;42.670;23.228;2022-07-18T07:50:34;44829.91;;;-137.01;34.65
8756;BME280;4414;42.670;23.228;2022-07-18T07:53:01;44862.44;;;-137.01;32.62
8756;BME280;4414;42.670;23.228;2022-07-18T07:55:28;44845.22;;;-137.01;33.58
8756;BME280;4414;42.670;23.228;2022-07-18T07:57:56;44860.50;;;-137.01;31.88
8756;BME280;4414;42.670;23.228;2022-07-18T08:00:23;44864.34;;;-137.01;34.77
8756;BME280;4414;42.670;23.228;2022-07-18T08:02:51;44868.16;;;-137.01;33.24
8756;BME280;4414;42.670;23.228;2022-07-18T08:05:18;44875.81;;;-137.01;33.20
8756;BME280;4414;42.670;23.228;2022-07-18T08:07:45;44866.25;;;-137.01;34.01
8756;BME280;4414;42.670;23.228;2022-07-18T08:10:12;44847.13;;;-137.01;35.64
8756;BME280;4414;42.670;23.228;2022-07-18T08:12:39;44868.16;;;-137.01;33.29
8756;BME280;4414;42.670;23.228;2022-07-18T08:15:08;44833.72;;;-137.01;34.82
8756;BME280;4414;42.670;23.228;2022-07-18T08:17:35;44860.50;;;-137.01;32.21
8756;BME280;4414;42.670;23.228;2022-07-18T08:20:02;44860.50;;;-137.01;32.69
8756;BME280;4414;42.670;23.228;2022-07-18T08:22:29;44854.78;;;-137.01;32.82
8756;BME280;4414;42.670;23.228;2022-07-18T08:24:56;44881.56;;;-137.01;33.06
8756;BME280;4414;42.670;23.228;2022-07-18T08:27:23;44872.00;;;-137.01;33.51
8756;BME280;4414;42.670;23.228;2022-07-18T08:29:49;44900.69;;;-137.01;33.14
8756;BME280;4414;42.670;23.228;2022-07-18T08:32:18;44849.03;;;-137.01;30.66
8756;BME280;4414;42.670;23.228;2022-07-18T08:34:44;44875.81;;;-137.01;33.38
8756;BME280;4414;42.670;23.228;2022-07-18T08:37:11;44893.03;;;-137.01;33.27
8756;BME280;4414;42.670;23.228;2022-07-18T08:39:38;44873.91;;;-137.01;32.50
8756;BME280;4414;42.670;23.228;2022-07-18T08:42:05;44906.41;;;-137.01;31.54
8756;BME280;4414;42.670;23.228;2022-07-18T08:44:34;44875.81;;;-137.01;30.79
8756;BME280;4414;42.670;23.228;2022-07-18T08:47:03;44875.81;;;-137.01;34.09
8756;BME280;4414;42.670;23.228;2022-07-18T08:49:33;44891.13;;;-137.01;30.79
8756;BME280;4414;42.670;23.228;2022-07-18T08:52:02;44873.91;;;-137.01;31.88
8756;BME280;4414;42.670;23.228;2022-07-18T08:54:29;44875.81;;;-137.01;30.75
8756;BME280;4414;42.670;23.228;2022-07-18T08:56:56;44896.84;;;-137.01;29.90
8756;BME280;4414;42.670;23.228;2022-07-18T08:59:23;44870.06;;;-137.01;32.87
8756;BME280;4414;42.670;23.228;2022-07-18T09:01:49;44893.03;;;-137.01;30.75
8756;BME280;4414;42.670;23.228;2022-07-18T09:07:22;44896.84;;;-137.01;32.82
8756;BME280;4414;42.670;23.228;2022-07-18T09:09:52;44877.72;;;-137.01;30.61
8756;BME280;4414;42.670;23.228;2022-07-18T09:12:19;44906.41;;;-137.01;29.92
8756;BME280;4414;42.670;23.228;2022-07-18T09:14:47;44898.75;;;-137.01;30.82
8756;BME280;4414;42.670;23.228;2022-07-18T09:17:15;44887.28;;;-137.01;32.58
8756;BME280;4414;42.670;23.228;2022-07-18T09:19:57;44891.13;;;-137.01;30.38
8756;BME280;4414;42.670;23.228;2022-07-18T09:22:28;44900.69;;;-137.01;29.90
8756;BME280;4414;42.670;23.228;2022-07-18T09:24:58;44906.41;;;-137.01;31.18
8756;BME280;4414;42.670;23.228;2022-07-18T09:27:31;44893.03;;;-137.01;30.99
8756;BME280;4414;42.670;23.228;2022-07-18T09:30:25;44898.75;;;-137.01;29.99
8756;BME280;4414;42.670;23.228;2022-07-18T09:32:54;44885.38;;;-137.01;31.80
8756;BME280;4414;42.670;23.228;2022-07-18T09:35:25;44864.34;;;-137.01;32.45
8756;BME280;4414;42.670;23.228;2022-07-18T09:38:00;44906.41;;;-137.01;32.68
8756;BME280;4414;42.670;23.228;2022-07-18T09:40:29;44923.63;;;-137.01;32.48
8756;BME280;4414;42.670;23.228;2022-07-18T09:42:58;44921.72;;;-137.01;31.38
8756;BME280;4414;42.670;23.228;2022-07-18T09:45:30;44900.69;;;-137.01;31.75
8756;BME280;4414;42.670;23.228;2022-07-18T09:47:58;44914.06;;;-137.01;35.16
8756;BME280;4414;42.670;23.228;2022-07-18T09:50:30;44872.00;;;-137.01;33.90
8756;BME280;4414;42.670;23.228;2022-07-18T09:53:15;44891.13;;;-137.01;33.60
8756;BME280;4414;42.670;23.228;2022-07-18T09:55:46;44914.06;;;-137.01;33.06
8756;BME280;4414;42.670;23.228;2022-07-18T09:58:16;44900.69;;;-137.01;33.11
8756;BME280;4414;42.670;23.228;2022-07-18T10:00:44;44875.81;;;-137.01;34.21
8756;BME280;4414;42.670;23.228;2022-07-18T10:03:11;44912.16;;;-137.01;33.71
8756;BME280;4414;42.670;23.228;2022-07-18T10:05:39;44885.38;;;-137.01;32.80
8756;BME280;4414;42.670;23.228;2022-07-18T10:08:09;44893.03;;;-137.01;33.35
8756;BME280;4414;42.670;23.228;2022-07-18T10:10:38;44891.13;;;-137.01;32.37
8756;BME280;4414;42.670;23.228;2022-07-18T10:13:06;44873.91;;;-137.01;32.31
8756;BME280;4414;42.670;23.228;2022-07-18T10:15:36;44917.91;;;-137.01;32.77
8756;BME280;4414;42.670;23.228;2022-07-18T10:18:05;44902.59;;;-137.01;34.96
8756;BME280;4414;42.670;23.228;2022-07-18T10:20:35;44908.34;;;-137.01;32.54
8756;BME280;4414;42.670;23.228;2022-07-18T10:23:08;44919.81;;;-137.01;34.36
8756;BME280;4414;42.670;23.228;2022-07-18T10:25:37;44896.84;;;-137.01;34.12
8756;BME280;4414;42.670;23.228;2022-07-18T10:28:07;44919.81;;;-137.01;34.01
8756;BME280;4414;42.670;23.228;2022-07-18T10:30:39;44900.69;;;-137.01;33.27
8756;BME280;4414;42.670;23.228;2022-07-18T10:33:36;44887.28;;;-137.01;31.85
8756;BME280;4414;42.670;23.228;2022-07-18T10:36:05;44914.06;;;-137.01;34.11
8756;BME280;4414;42.670;23.228;2022-07-18T10:38:32;44896.84;;;-137.01;34.22
8756;BME280;4414;42.670;23.228;2022-07-18T10:41:12;44925.53;;;-137.01;32.97
8756;BME280;4414;42.670;23.228;2022-07-18T10:43:43;44923.63;;;-137.01;33.23
8756;BME280;4414;42.670;23.228;2022-07-18T10:46:11;44900.69;;;-137.01;35.96
8756;BME280;4414;42.670;23.228;2022-07-18T10:48:55;44898.75;;;-137.01;33.99
8756;BME280;4414;42.670;23.228;2022-07-18T10:51:29;44904.50;;;-137.01;32.51
8756;BME280;4414;42.670;23.228;2022-07-18T10:54:10;44902.59;;;-137.01;32.57
8756;BME280;4414;42.670;23.228;2022-07-18T10:57:07;44894.94;;;-137.01;33.03
8756;BME280;4414;42.670;23.228;2022-07-18T10:59:35;44906.41;;;-137.01;33.06
8756;BME280;4414;42.670;23.228;2022-07-18T11:02:05;44894.94;;;-137.01;33.64
8756;BME280;4414;42.670;23.228;2022-07-18T11:04:35;44923.63;;;-137.01;34.76
8756;BME280;4414;42.670;23.228;2022-07-18T11:07:04;44898.75;;;-137.01;34.98
8756;BME280;4414;42.670;23.228;2022-07-18T11:09:32;44915.97;;;-137.01;34.08
8756;BME280;4414;42.670;23.228;2022-07-18T11:12:21;44921.72;;;-137.01;34.32
8756;BME280;4414;42.670;23.228;2022-07-18T11:17:59;44908.34;;;-137.01;33.38
8756;BME280;4414;42.670;23.228;2022-07-18T11:20:28;44914.06;;;-137.01;34.01
8756;BME280;4414;42.670;23.228;2022-07-18T11:22:56;44902.59;;;-137.01;33.69
8756;BME280;4414;42.670;23.228;2022-07-18T11:25:25;44896.84;;;-137.01;34.00
8756;BME280;4414;42.670;23.228;2022-07-18T11:27:54;44910.25;;;-137.01;32.89
8756;BME280;4414;42.670;23.228;2022-07-18T11:30:23;44917.91;;;-137.01;33.08
8756;BME280;4414;42.670;23.228;2022-07-18T11:32:50;44917.91;;;-137.01;33.83
8756;BME280;4414;42.670;23.228;2022-07-18T11:35:21;44894.94;;;-137.01;34.20
8756;BME280;4414;42.670;23.228;2022-07-18T11:37:49;44917.91;;;-137.01;32.89
8756;BME280;4414;42.670;23.228;2022-07-18T11:40:16;44917.91;;;-137.01;32.07
8756;BME280;4414;42.670;23.228;2022-07-18T11:42:43;44923.63;;;-137.01;33.36
8756;BME280;4414;42.670;23.228;2022-07-18T11:45:13;44906.41;;;-137.01;32.97
8756;BME280;4414;42.670;23.228;2022-07-18T11:47:46;44915.97;;;-137.01;32.95
8756;BME280;4414;42.670;23.228;2022-07-18T11:50:13;44921.72;;;-137.01;33.54
8756;BME280;4414;42.670;23.228;2022-07-18T11:52:40;44935.09;;;-137.01;33.40
8756;BME280;4414;42.670;23.228;2022-07-18T11:55:07;44929.38;;;-137.01;33.87
8756;BME280;4414;42.670;23.228;2022-07-18T11:57:35;44938.94;;;-137.01;33.80
8756;BME280;4414;42.670;23.228;2022-07-18T12:00:16;44925.53;;;-137.01;32.54
8756;BME280;4414;42.670;23.228;2022-07-18T12:03:05;44919.81;;;-137.01;32.63
8756;BME280;4414;42.670;23.228;2022-07-18T12:05:33;44959.97;;;-137.01;32.11
8756;BME280;4414;42.670;23.228;2022-07-18T12:08:00;44937.03;;;-137.01;32.71
8756;BME280;4414;42.670;23.228;2022-07-18T12:10:27;44931.28;;;-137.01;32.29
8756;BME280;4414;42.670;23.228;2022-07-18T12:12:54;44912.16;;;-137.01;32.17
8756;BME280;4414;42.670;23.228;2022-07-18T12:15:37;44940.84;;;-137.01;33.49
8756;BME280;4414;42.670;23.228;2022-07-18T12:18:04;44917.91;;;-137.01;32.03
8756;BME280;4414;42.670;23.228;2022-07-18T12:20:31;44940.84;;;-137.01;33.46
8756;BME280;4414;42.670;23.228;2022-07-18T12:23:08;44929.38;;;-137.01;32.04
8756;BME280;4414;42.670;23.228;2022-07-18T12:25:40;44925.53;;;-137.01;31.95
8756;BME280;4414;42.670;23.228;2022-07-18T12:28:14;44937.03;;;-137.01;32.64
8756;BME280;4414;42.670;23.228;2022-07-18T12:30:43;44931.28;;;-137.01;33.03
8756;BME280;4414;42.670;23.228;2022-07-18T12:33:10;44944.66;;;-137.01;32.33
8756;BME280;4414;42.670;23.228;2022-07-18T12:35:37;44938.94;;;-137.01;32.22
8756;BME280;4414;42.670;23.228;2022-07-18T12:38:06;44919.81;;;-137.01;33.42
8756;BME280;4414;42.670;23.228;2022-07-18T12:40:42;44950.41;;;-137.01;31.48
8756;BME280;4414;42.670;23.228;2022-07-18T12:43:11;44977.19;;;-137.01;32.96
8756;BME280;4414;42.670;23.228;2022-07-18T12:45:39;44956.16;;;-137.01;31.18
8756;BME280;4414;42.670;23.228;2022-07-18T12:48:09;44935.09;;;-137.01;32.01
8756;BME280;4414;42.670;23.228;2022-07-18T12:50:38;44946.59;;;-137.01;32.17
8756;BME280;4414;42.670;23.228;2022-07-18T12:53:05;44952.31;;;-137.01;32.38
8756;BME280;4414;42.670;23.228;2022-07-18T12:55:32;44948.50;;;-137.01;31.58
8756;BME280;4414;42.670;23.228;2022-07-18T12:57:59;44921.72;;;-137.01;31.76
8756;BME280;4414;42.670;23.228;2022-07-18T13:00:26;44929.38;;;-137.01;32.65
8756;BME280;4414;42.670;23.228;2022-07-18T13:02:54;44948.50;;;-137.01;33.59